Time;durP1;ratioP1;P1;durP2;ratioP2;P2;SDS_P1;SDS_P2;PMS_P1;PMS_P2;Temp;Humidity;BMP_temperature;BMP_pressure;BME280_temperature;BME280_humidity;BME280_pressure;Samples;Min_cycle;Max_cycle;Signal;HPM_P1;HPM_P2
2021/04/14 00:00:53;;;;;;;5.93;5.10;;;1.00;99.90;;;;;;4971115;28;20193;-85
2021/04/14 00:03:25;;;;;;;6.20;4.93;;;1.00;99.90;;;;;;4972309;28;20619;-85
2021/04/14 00:05:52;;;;;;;6.37;5.70;;;0.90;99.90;;;;;;4973169;28;20267;-85
2021/04/14 00:08:18;;;;;;;6.67;5.03;;;1.00;99.90;;;;;;4955251;28;20498;-85
2021/04/14 00:10:46;;;;;;;6.80;5.50;;;0.90;99.90;;;;;;4961779;28;20810;-84
2021/04/14 00:13:16;;;;;;;5.73;5.00;;;0.90;99.90;;;;;;4951642;28;20458;-85
2021/04/14 00:15:47;;;;;;;8.53;5.37;;;1.00;99.90;;;;;;4951491;28;20441;-84
2021/04/14 00:18:13;;;;;;;8.10;5.73;;;0.90;99.90;;;;;;4969934;28;20483;-85
2021/04/14 00:20:39;;;;;;;6.80;5.00;;;0.90;99.90;;;;;;4951897;28;20857;-85
2021/04/14 00:23:06;;;;;;;5.57;4.17;;;0.90;99.90;;;;;;4952191;28;20206;-86
2021/04/14 00:25:35;;;;;;;5.30;4.47;;;0.90;99.90;;;;;;4967224;28;20186;-85
2021/04/14 00:28:01;;;;;;;4.50;4.10;;;0.90;99.90;;;;;;4954625;28;20453;-85
2021/04/14 00:30:28;;;;;;;5.90;4.57;;;1.00;99.90;;;;;;4935666;28;20473;-86
2021/04/14 00:32:55;;;;;;;5.37;4.30;;;1.00;99.90;;;;;;4964163;28;20468;-85
2021/04/14 00:35:22;;;;;;;4.30;3.90;;;1.00;99.90;;;;;;4962063;28;20982;-85
2021/04/14 00:37:48;;;;;;;4.40;3.97;;;0.90;99.90;;;;;;4967104;28;20449;-86
2021/04/14 00:40:20;;;;;;;4.40;4.00;;;0.90;99.90;;;;;;4970097;28;20449;-86
2021/04/14 00:42:46;;;;;;;4.50;4.03;;;0.70;99.90;;;;;;4967673;28;20547;-85
2021/04/14 00:45:12;;;;;;;4.80;3.93;;;0.70;99.90;;;;;;4954177;28;20470;-86
2021/04/14 00:47:38;;;;;;;6.97;4.80;;;0.60;99.90;;;;;;4963633;28;20263;-86
2021/04/14 00:50:15;;;;;;;4.50;4.10;;;0.70;99.90;;;;;;4967555;28;20464;-85
2021/04/14 00:52:41;;;;;;;7.03;4.77;;;0.70;99.90;;;;;;4952674;28;20534;-85
2021/04/14 00:55:12;;;;;;;4.70;4.20;;;0.60;99.90;;;;;;4965922;28;20464;-85
2021/04/14 00:57:37;;;;;;;4.10;3.37;;;0.60;99.90;;;;;;4968324;28;20896;-85
2021/04/14 01:00:13;;;;;;;7.13;4.53;;;0.60;99.90;;;;;;4955825;28;20445;-85
2021/04/14 01:02:39;;;;;;;5.20;3.80;;;0.40;99.90;;;;;;4960912;28;20336;-85
2021/04/14 01:05:08;;;;;;;5.53;3.80;;;0.40;99.90;;;;;;4956346;28;20456;-85
2021/04/14 01:07:34;;;;;;;5.33;4.40;;;0.50;99.90;;;;;;4961908;28;20213;-85
2021/04/14 01:09:59;;;;;;;4.50;4.10;;;0.50;99.90;;;;;;4960090;28;20528;-85
2021/04/14 01:12:25;;;;;;;4.70;4.13;;;0.50;99.90;;;;;;4945881;28;20322;-85
2021/04/14 01:14:50;;;;;;;4.77;3.53;;;0.50;99.90;;;;;;4940264;28;20288;-85
2021/04/14 01:17:16;;;;;;;4.57;4.17;;;0.60;99.90;;;;;;4960717;28;20212;-85
2021/04/14 01:19:42;;;;;;;5.50;4.00;;;0.60;99.90;;;;;;4951948;28;20544;-84
2021/04/14 01:22:07;;;;;;;4.20;3.70;;;0.70;99.90;;;;;;4950781;28;20216;-85
2021/04/14 01:24:33;;;;;;;4.90;4.07;;;0.60;99.90;;;;;;4955255;28;20335;-85
2021/04/14 01:26:59;;;;;;;4.57;4.17;;;0.50;99.90;;;;;;4959502;28;20204;-85
2021/04/14 01:29:24;;;;;;;5.27;3.93;;;0.50;99.90;;;;;;4965273;28;20852;-84
2021/04/14 01:31:50;;;;;;;3.90;3.60;;;0.50;99.90;;;;;;4956367;28;20182;-84
2021/04/14 01:34:17;;;;;;;4.40;3.67;;;0.40;99.90;;;;;;4952074;28;21745;-85
2021/04/14 01:36:43;;;;;;;4.35;3.58;;;0.30;99.90;;;;;;4966663;28;20193;-84
2021/04/14 01:39:11;;;;;;;4.40;4.00;;;0.30;99.90;;;;;;4950962;28;20190;-84
2021/04/14 01:41:38;;;;;;;4.43;3.93;;;0.30;99.90;;;;;;4956926;28;20182;-84
2021/04/14 01:44:05;;;;;;;3.87;3.53;;;0.20;99.90;;;;;;4971785;28;20982;-85
2021/04/14 01:46:31;;;;;;;4.47;3.60;;;0.20;99.90;;;;;;4963052;28;20444;-85
2021/04/14 01:48:57;;;;;;;4.97;4.03;;;0.10;99.90;;;;;;4971824;28;20557;-85
2021/04/14 01:51:23;;;;;;;5.40;4.90;;;0.00;99.90;;;;;;4964257;28;20465;-85
2021/04/14 01:53:50;;;;;;;7.68;6.30;;;0.00;99.90;;;;;;4950511;28;20758;-85
2021/04/14 01:56:15;;;;;;;7.57;6.40;;;-0.10;99.90;;;;;;4968107;28;20193;-86
2021/04/14 01:58:43;;;;;;;6.07;5.47;;;-0.10;99.90;;;;;;4951530;28;20460;-86
2021/04/14 02:01:09;;;;;;;4.80;4.40;;;0.00;99.90;;;;;;4962222;28;20452;-87
2021/04/14 02:03:38;;;;;;;5.20;4.23;;;0.00;99.90;;;;;;4970481;28;20587;-87
2021/04/14 02:06:06;;;;;;;7.28;5.25;;;-0.10;99.90;;;;;;4966409;28;21683;-86
2021/04/14 02:08:32;;;;;;;5.45;4.55;;;-0.10;99.90;;;;;;4946283;28;20193;-86
2021/04/14 02:10:58;;;;;;;4.77;4.23;;;-0.30;99.90;;;;;;4968447;28;20204;-85
2021/04/14 02:13:27;;;;;;;5.20;4.70;;;-0.40;99.90;;;;;;4957028;28;20190;-85
2021/04/14 02:15:53;;;;;;;4.93;4.53;;;-0.40;99.90;;;;;;4969495;28;20630;-86
2021/04/14 02:18:19;;;;;;;5.10;4.60;;;-0.50;99.90;;;;;;4958719;28;20803;-86
2021/04/14 02:20:46;;;;;;;5.10;4.60;;;-0.40;99.90;;;;;;4953331;28;20535;-85
2021/04/14 02:23:20;;;;;;;4.93;4.53;;;-0.40;99.90;;;;;;4973329;28;20469;-85
2021/04/14 02:25:46;;;;;;;7.00;4.90;;;-0.30;99.90;;;;;;4973551;28;20448;-85
2021/04/14 02:28:13;;;;;;;8.13;4.50;;;-0.40;99.90;;;;;;4967648;28;20209;-86
2021/04/14 02:30:38;;;;;;;5.00;4.50;;;-0.30;99.90;;;;;;4959507;28;20457;-85
2021/04/14 02:33:06;;;;;;;8.60;4.80;;;-0.20;99.90;;;;;;4970961;28;20612;-85
2021/04/14 02:35:32;;;;;;;5.67;4.50;;;-0.20;99.90;;;;;;4951501;28;20290;-86
2021/04/14 02:37:58;;;;;;;5.60;4.80;;;-0.20;99.90;;;;;;4977591;28;20452;-85
2021/04/14 02:40:24;;;;;;;5.77;5.00;;;-0.10;99.90;;;;;;4970452;28;21336;-87
2021/04/14 02:42:52;;;;;;;6.77;4.77;;;0.00;99.90;;;;;;4958143;28;20652;-87
2021/04/14 02:45:22;;;;;;;6.40;5.50;;;0.00;99.90;;;;;;4953781;28;20974;-86
2021/04/14 02:47:47;;;;;;;5.87;5.27;;;0.00;99.90;;;;;;4966404;28;20444;-86
2021/04/14 02:50:13;;;;;;;5.57;4.97;;;0.00;99.90;;;;;;4944748;28;20974;-86
2021/04/14 02:52:39;;;;;;;6.13;5.50;;;0.00;99.90;;;;;;4967972;28;20194;-85
2021/04/14 02:55:07;;;;;;;5.63;5.10;;;-0.10;99.90;;;;;;4970208;28;21004;-85
2021/04/14 02:57:33;;;;;;;6.10;4.93;;;0.00;99.90;;;;;;4966221;28;20460;-86
2021/04/14 02:59:59;;;;;;;4.80;4.40;;;0.00;99.90;;;;;;4971042;28;20448;-85
2021/04/14 03:02:25;;;;;;;5.40;4.10;;;-0.10;99.90;;;;;;4953379;28;20452;-85
2021/04/14 03:04:51;;;;;;;5.63;5.00;;;-0.20;99.90;;;;;;4959626;28;20244;-85
2021/04/14 03:07:17;;;;;;;6.03;4.47;;;-0.20;99.90;;;;;;4977044;28;20449;-85
2021/04/14 03:09:42;;;;;;;5.53;4.90;;;-0.30;99.90;;;;;;4956318;28;20545;-85
2021/04/14 03:12:12;;;;;;;5.70;4.93;;;-0.40;99.90;;;;;;4967418;28;20278;-85
2021/04/14 03:14:40;;;;;;;4.57;4.17;;;-0.50;99.90;;;;;;4970577;28;20222;-85
2021/04/14 03:17:06;;;;;;;5.43;4.87;;;-0.50;99.90;;;;;;4970738;28;20540;-85
2021/04/14 03:19:32;;;;;;;5.30;4.80;;;-0.60;99.90;;;;;;4955331;28;20438;-85
2021/04/14 03:21:58;;;;;;;5.67;5.20;;;-0.60;99.90;;;;;;4954780;28;22349;-85
2021/04/14 03:24:29;;;;;;;6.03;5.40;;;-0.70;99.90;;;;;;4952355;28;20268;-85
2021/04/14 03:26:58;;;;;;;7.65;4.75;;;-0.60;99.90;;;;;;4970631;28;20186;-85
2021/04/14 03:29:26;;;;;;;7.82;5.63;;;-0.50;99.90;;;;;;4954523;28;20690;-85
2021/04/14 03:31:52;;;;;;;5.23;4.73;;;-0.50;99.90;;;;;;4971392;28;20255;-85
2021/04/14 03:34:17;;;;;;;8.13;5.10;;;-0.60;99.90;;;;;;4974486;28;20655;-85
2021/04/14 03:36:43;;;;;;;5.50;4.67;;;-0.60;99.90;;;;;;4961151;28;20193;-85
2021/04/14 03:39:11;;;;;;;5.87;5.07;;;-0.60;99.90;;;;;;4951138;28;20727;-86
2021/04/14 03:41:37;;;;;;;7.15;5.95;;;-0.70;99.90;;;;;;4948054;28;20277;-86
2021/04/14 03:44:03;;;;;;;6.67;5.20;;;-0.80;99.90;;;;;;4967681;28;20316;-86
2021/04/14 03:46:32;;;;;;;5.20;4.80;;;-0.90;99.90;;;;;;4939829;28;20179;-86
2021/04/14 03:48:57;;;;;;;7.43;5.28;;;-0.80;99.90;;;;;;4959613;28;20181;-86
2021/04/14 03:51:26;;;;;;;5.40;4.90;;;-0.90;99.90;;;;;;4969736;28;20179;-86
2021/04/14 03:53:53;;;;;;;5.55;5.05;;;-0.90;99.90;;;;;;4967807;28;20459;-86
2021/04/14 03:56:19;;;;;;;6.10;5.50;;;-0.90;99.90;;;;;;4973474;28;20190;-86
2021/04/14 03:58:49;;;;;;;7.80;6.30;;;-1.00;99.90;;;;;;4969461;28;21322;-86
2021/04/14 04:01:27;;;;;;;7.60;5.50;;;-1.10;99.90;;;;;;4965587;28;20215;-85
2021/04/14 04:03:53;;;;;;;6.53;5.88;;;-1.10;99.90;;;;;;4954733;28;20587;-85
2021/04/14 04:06:20;;;;;;;7.13;5.07;;;-1.20;99.90;;;;;;4953916;28;20225;-84
2021/04/14 04:08:46;;;;;;;6.07;5.40;;;-1.10;99.90;;;;;;4965442;28;20196;-85
2021/04/14 04:11:13;;;;;;;7.13;5.60;;;-1.00;99.90;;;;;;4968706;28;20181;-87
2021/04/14 04:13:40;;;;;;;5.93;5.32;;;-1.00;99.90;;;;;;4954556;28;20623;-85
2021/04/14 04:16:05;;;;;;;6.10;5.50;;;-0.90;99.90;;;;;;4969677;28;20295;-85
2021/04/14 04:18:32;;;;;;;5.63;5.10;;;-0.80;99.90;;;;;;4970555;28;20218;-85
2021/04/14 04:20:58;;;;;;;5.38;4.68;;;-0.70;99.90;;;;;;4965293;28;20536;-86
2021/04/14 04:23:24;;;;;;;6.40;4.13;;;-0.70;99.90;;;;;;4948954;28;22417;-86
2021/04/14 04:25:51;;;;;;;5.75;3.78;;;-0.70;99.90;;;;;;4955830;28;20405;-86
2021/04/14 04:28:18;;;;;;;7.43;3.85;;;-0.80;99.90;;;;;;4968400;28;20643;-86
2021/04/14 04:30:44;;;;;;;5.40;3.75;;;-0.80;99.90;;;;;;4938019;28;20267;-86
2021/04/14 04:33:10;;;;;;;4.43;3.55;;;-0.90;99.90;;;;;;4968460;28;20656;-87
2021/04/14 04:35:36;;;;;;;4.43;4.00;;;-1.10;99.90;;;;;;4964971;28;20244;-87
2021/04/14 04:38:02;;;;;;;4.03;3.60;;;-1.10;99.90;;;;;;4941453;28;20693;-86
2021/04/14 04:40:28;;;;;;;4.65;4.22;;;-1.20;99.90;;;;;;4950672;28;20352;-86
2021/04/14 04:43:00;;;;;;;10.77;4.70;;;-1.20;99.90;;;;;;4974935;28;20489;-86
2021/04/14 04:45:28;;;;;;;4.25;3.85;;;-1.20;99.90;;;;;;4962125;28;20201;-87
2021/04/14 04:47:55;;;;;;;5.50;3.70;;;-1.20;99.90;;;;;;4953342;28;20233;-87
2021/04/14 04:50:26;;;;;;;4.65;4.00;;;-1.30;99.90;;;;;;4953049;28;20193;-86
2021/04/14 04:52:56;;;;;;;5.30;3.90;;;-1.20;99.90;;;;;;4960331;28;20232;-86
2021/04/14 04:55:22;;;;;;;4.40;3.72;;;-1.20;99.90;;;;;;4970055;28;20196;-87
2021/04/14 04:57:59;;;;;;;6.35;4.03;;;-1.00;99.90;;;;;;4966106;28;20182;-87
2021/04/14 05:00:25;;;;;;;9.93;4.13;;;-1.00;99.90;;;;;;4969508;28;20193;-88
2021/04/14 05:02:52;;;;;;;4.40;4.00;;;-0.90;99.90;;;;;;4955214;28;20201;-88
2021/04/14 05:05:22;;;;;;;4.60;4.15;;;-0.90;99.90;;;;;;4967072;28;20659;-88
2021/04/14 05:07:49;;;;;;;3.72;3.42;;;-0.80;99.90;;;;;;4957680;28;20229;-89
2021/04/14 05:10:15;;;;;;;5.20;3.70;;;-0.80;99.90;;;;;;4954176;28;20660;-88
2021/04/14 05:12:40;;;;;;;4.88;4.38;;;-0.80;99.90;;;;;;4954508;28;20236;-87
2021/04/14 05:15:09;;;;;;;5.67;3.53;;;-0.70;99.90;;;;;;4968567;28;20584;-86
2021/04/14 05:17:35;;;;;;;3.90;3.60;;;-0.60;99.90;;;;;;4956250;28;20697;-86
2021/04/14 05:20:01;;;;;;;6.87;3.73;;;-0.60;99.90;;;;;;4978097;28;20225;-86
2021/04/14 05:22:28;;;;;;;4.80;3.70;;;-0.50;99.90;;;;;;4974921;28;20279;-87
2021/04/14 05:24:54;;;;;;;5.63;4.10;;;-0.40;99.90;;;;;;4974098;28;20503;-87
2021/04/14 05:27:20;;;;;;;4.30;3.90;;;-0.30;99.90;;;;;;4976322;28;20652;-87
2021/04/14 05:29:45;;;;;;;5.07;4.30;;;-0.20;99.90;;;;;;4945718;28;20715;-87
2021/04/14 05:32:11;;;;;;;4.80;4.30;;;-0.10;99.90;;;;;;4973553;28;20182;-87
2021/04/14 05:34:37;;;;;;;5.10;4.60;;;-0.10;99.90;;;;;;4964965;28;20591;-87
2021/04/14 05:37:02;;;;;;;6.20;4.50;;;-0.10;99.90;;;;;;4952597;28;20655;-87
2021/04/14 05:39:28;;;;;;;4.70;4.10;;;0.10;99.90;;;;;;4950833;28;20201;-88
2021/04/14 05:41:54;;;;;;;5.30;4.30;;;0.20;99.90;;;;;;4952278;28;20206;-88
2021/04/14 05:44:19;;;;;;;5.67;4.90;;;0.30;99.90;;;;;;4970786;28;20220;-88
2021/04/14 05:46:45;;;;;;;4.90;4.50;;;0.30;99.90;;;;;;4956841;28;20741;-87
2021/04/14 05:49:11;;;;;;;6.93;4.77;;;0.40;99.90;;;;;;4958785;28;20637;-87
2021/04/14 05:51:36;;;;;;;5.83;4.63;;;0.40;99.90;;;;;;4975464;28;20193;-87
2021/04/14 05:54:02;;;;;;;9.90;4.57;;;0.40;99.90;;;;;;4954137;28;20225;-87
2021/04/14 05:56:30;;;;;;;6.90;5.10;;;0.40;99.90;;;;;;4955471;28;20197;-87
2021/04/14 05:58:57;;;;;;;5.93;4.60;;;0.40;99.90;;;;;;4971559;28;20444;-87
2021/04/14 06:01:25;;;;;;;5.73;5.23;;;0.50;99.90;;;;;;4953977;28;20479;-87
2021/04/14 06:03:51;;;;;;;6.10;4.70;;;0.70;99.90;;;;;;4968294;28;20485;-87
2021/04/14 06:06:18;;;;;;;7.97;5.50;;;0.70;99.90;;;;;;4966785;28;20445;-87
2021/04/14 06:08:44;;;;;;;6.13;5.60;;;1.00;99.90;;;;;;4964097;28;20484;-88
2021/04/14 06:11:10;;;;;;;8.80;5.83;;;1.20;99.90;;;;;;4965231;28;20436;-86
2021/04/14 06:13:36;;;;;;;6.17;5.60;;;1.30;99.90;;;;;;4952360;28;20788;-87
2021/04/14 06:16:07;;;;;;;6.60;6.00;;;1.50;99.90;;;;;;4968056;28;20434;-86
2021/04/14 06:18:33;;;;;;;8.53;5.97;;;1.60;99.90;;;;;;4955704;28;20505;-86
2021/04/14 06:20:59;;;;;;;6.83;5.93;;;1.70;99.90;;;;;;4954392;28;20457;-86
2021/04/14 06:23:25;;;;;;;9.37;5.93;;;1.90;99.90;;;;;;4968172;28;20660;-90
2021/04/14 06:28:21;;;;;;;8.50;6.73;;;2.00;99.90;;;;;;4969838;28;20441;-88
2021/04/14 06:30:47;;;;;;;6.47;5.80;;;2.00;99.90;;;;;;4958393;28;20449;-89
2021/04/14 06:33:14;;;;;;;6.80;6.10;;;2.20;99.90;;;;;;4947005;28;20438;-89
2021/04/14 06:35:40;;;;;;;6.70;6.10;;;2.30;99.90;;;;;;4970908;28;20202;-90
2021/04/14 06:38:06;;;;;;;7.87;7.07;;;2.40;99.90;;;;;;4979872;28;20483;-88
2021/04/14 06:43:15;;;;;;;6.77;6.10;;;2.50;99.90;;;;;;4977031;28;20819;-88
2021/04/14 06:45:58;;;;;;;7.77;6.43;;;2.70;99.90;;;;;;4971576;28;20535;-89
2021/04/14 06:48:43;;;;;;;9.07;6.73;;;2.90;99.90;;;;;;4974210;28;20515;-88
2021/04/14 06:51:35;;;;;;;7.10;6.40;;;3.20;99.90;;;;;;4975814;28;20981;-88
2021/04/14 06:54:24;;;;;;;8.20;7.40;;;3.40;99.90;;;;;;4970348;28;20452;-88
2021/04/14 06:56:56;;;;;;;9.70;7.27;;;3.40;99.90;;;;;;4970467;28;20497;-89
2021/04/14 06:59:24;;;;;;;6.47;5.87;;;3.50;99.90;;;;;;4969469;28;20476;-88
2021/04/14 07:02:04;;;;;;;9.20;7.33;;;3.70;99.90;;;;;;4957874;28;20453;-85
2021/04/14 07:04:56;;;;;;;8.90;6.93;;;3.80;99.90;;;;;;4973537;28;20866;-85
2021/04/14 07:07:29;;;;;;;7.37;6.67;;;3.80;99.90;;;;;;4955249;28;20445;-86
2021/04/14 07:10:04;;;;;;;8.67;5.97;;;3.90;99.90;;;;;;4971329;28;20475;-84
2021/04/14 07:12:30;;;;;;;7.07;6.20;;;4.10;99.90;;;;;;4967924;28;21410;-85
2021/04/14 07:14:59;;;;;;;6.10;5.60;;;4.30;99.90;;;;;;4955433;28;20462;-87
2021/04/14 07:17:48;;;;;;;5.33;4.83;;;4.50;99.90;;;;;;4963131;28;20199;-85
2021/04/14 07:20:35;;;;;;;5.77;5.20;;;4.60;99.90;;;;;;4964591;28;20459;-85
2021/04/14 07:23:06;;;;;;;6.50;5.87;;;4.60;99.30;;;;;;4957823;28;20459;-86
2021/04/14 07:26:05;;;;;;;6.03;4.57;;;4.80;99.30;;;;;;4969443;28;20452;-85
2021/04/14 07:29:05;;;;;;;8.63;4.30;;;4.90;99.80;;;;;;4978814;28;20445;-87
2021/04/14 07:31:46;;;;;;;4.57;4.17;;;4.90;99.30;;;;;;4971781;28;20448;-85
2021/04/14 07:34:36;;;;;;;6.03;4.93;;;5.00;99.00;;;;;;4968734;28;20456;-87
2021/04/14 07:37:05;;;;;;;4.27;3.90;;;5.00;99.20;;;;;;4954791;28;20464;-86
2021/04/14 07:40:05;;;;;;;9.20;4.20;;;5.20;99.20;;;;;;4949097;28;20442;-87
2021/04/14 07:42:58;;;;;;;7.90;4.13;;;5.20;99.10;;;;;;4948656;28;20452;-85
2021/04/14 07:45:29;;;;;;;4.43;4.00;;;5.20;98.80;;;;;;4970362;28;20453;-85
2021/04/14 07:48:04;;;;;;;5.30;4.47;;;5.40;99.00;;;;;;4975358;28;20485;-85
2021/04/14 07:50:36;;;;;;;5.40;4.93;;;5.50;98.80;;;;;;4954709;28;20446;-87
2021/04/14 07:53:03;;;;;;;5.10;4.03;;;5.80;98.70;;;;;;4935815;28;21902;-84
2021/04/14 07:55:32;;;;;;;6.90;4.10;;;6.10;98.60;;;;;;4960463;28;20454;-84
2021/04/14 07:58:17;;;;;;;6.20;4.43;;;6.20;97.80;;;;;;4954727;28;20446;-85
2021/04/14 08:00:46;;;;;;;5.53;4.40;;;6.40;98.10;;;;;;4937130;28;20445;-86
2021/04/14 08:03:28;;;;;;;4.57;4.17;;;6.60;98.20;;;;;;4963455;28;21202;-87
2021/04/14 08:06:10;;;;;;;6.70;4.20;;;6.60;97.10;;;;;;4967013;28;20830;-86
2021/04/14 08:08:39;;;;;;;5.60;4.00;;;6.60;98.30;;;;;;4969553;28;20439;-87
2021/04/14 08:11:33;;;;;;;5.60;5.00;;;6.60;97.10;;;;;;4963715;28;20484;-87
2021/04/14 08:14:33;;;;;;;4.20;3.80;;;6.70;97.90;;;;;;4952042;28;20432;-86
2021/04/14 08:17:24;;;;;;;9.63;4.13;;;6.90;97.40;;;;;;4973528;28;20469;-89
2021/04/14 08:20:13;;;;;;;4.10;3.70;;;6.90;95.90;;;;;;4972476;28;20889;-88
2021/04/14 08:22:42;;;;;;;4.70;3.50;;;7.00;96.60;;;;;;4956888;28;20496;-89
2021/04/14 08:25:35;;;;;;;4.50;3.60;;;7.10;96.40;;;;;;4970666;28;20527;-90
2021/04/14 08:28:02;;;;;;;3.73;3.30;;;7.20;97.70;;;;;;4957975;28;20462;-90
2021/04/14 08:30:28;;;;;;;5.50;3.40;;;7.40;97.20;;;;;;4949749;28;21062;-89
2021/04/14 08:32:54;;;;;;;7.43;3.00;;;7.50;96.10;;;;;;4970526;28;20492;-90
2021/04/14 08:35:31;;;;;;;5.17;3.60;;;7.50;96.70;;;;;;4970902;28;20468;-90
2021/04/14 08:38:07;;;;;;;3.33;3.03;;;7.50;96.10;;;;;;4968621;28;20204;-90
2021/04/14 08:40:41;;;;;;;4.27;3.80;;;7.60;96.90;;;;;;4973431;28;20439;-91
2021/04/14 08:43:12;;;;;;;6.27;4.37;;;7.70;95.60;;;;;;4949777;28;20454;-90
2021/04/14 08:45:44;;;;;;;7.63;4.10;;;7.70;95.30;;;;;;4969518;28;20458;-89
2021/04/14 08:48:19;;;;;;;6.20;3.93;;;7.80;95.90;;;;;;4973173;28;20443;-89
2021/04/14 08:50:49;;;;;;;9.43;3.90;;;7.90;94.60;;;;;;4971464;28;20859;-89
2021/04/14 08:53:18;;;;;;;5.07;3.70;;;8.00;94.60;;;;;;4956401;28;20554;-90
2021/04/14 08:55:44;;;;;;;5.73;4.07;;;8.00;92.90;;;;;;4973901;28;21012;-91
2021/04/14 08:58:15;;;;;;;6.73;4.57;;;8.20;94.40;;;;;;4962502;28;20989;-93
2021/04/14 09:00:41;;;;;;;6.10;5.13;;;8.40;93.00;;;;;;4969043;28;20496;-93
2021/04/14 09:03:12;;;;;;;5.17;4.30;;;8.70;93.90;;;;;;4967618;28;20495;-92
2021/04/14 09:05:43;;;;;;;6.60;5.07;;;8.80;90.60;;;;;;4969760;28;20484;-91
2021/04/14 09:08:12;;;;;;;6.00;4.30;;;8.80;90.10;;;;;;4956962;28;20463;-90
2021/04/14 09:10:40;;;;;;;5.90;4.50;;;8.60;90.30;;;;;;4972934;28;20478;-92
2021/04/14 09:13:11;;;;;;;5.53;4.70;;;8.20;91.90;;;;;;4975437;28;20461;-92
2021/04/14 09:15:54;;;;;;;7.10;4.47;;;8.50;92.90;;;;;;4975532;28;20449;-92
2021/04/14 09:18:33;;;;;;;5.33;3.73;;;8.70;92.30;;;;;;4970774;28;20480;-92
2021/04/14 09:21:15;;;;;;;5.70;4.17;;;9.00;91.10;;;;;;4966201;28;21005;-91
2021/04/14 09:23:58;;;;;;;5.40;3.13;;;9.40;91.70;;;;;;4948592;28;20478;-90
2021/04/14 09:26:32;;;;;;;3.33;3.00;;;9.60;86.20;;;;;;4942601;28;20473;-89
2021/04/14 09:29:02;;;;;;;19.03;4.00;;;9.90;82.20;;;;;;4972723;28;20459;-91
2021/04/14 09:31:39;;;;;;;4.70;3.80;;;10.50;79.40;;;;;;4949682;28;20976;-91
2021/04/14 09:34:30;;;;;;;8.23;3.83;;;10.80;74.50;;;;;;4942384;28;20460;-91
2021/04/14 09:37:12;;;;;;;4.87;2.80;;;10.30;82.00;;;;;;4954197;28;20445;-92
2021/04/14 09:39:55;;;;;;;4.10;2.80;;;10.40;75.30;;;;;;4975223;28;20462;-92
2021/04/14 09:42:24;;;;;;;4.13;3.63;;;10.30;67.30;;;;;;4962627;28;21191;-92
2021/04/14 09:44:58;;;;;;;4.07;3.50;;;10.00;70.00;;;;;;4958203;28;20479;-92
2021/04/14 09:47:23;;;;;;;4.33;3.93;;;9.70;69.30;;;;;;4961848;28;20448;-92
2021/04/14 09:49:50;;;;;;;4.13;3.83;;;9.50;73.00;;;;;;4967812;28;20940;-91
2021/04/14 09:52:28;;;;;;;5.10;4.40;;;9.50;76.00;;;;;;4979248;28;20197;-94
2021/04/14 09:55:13;;;;;;;25.63;6.53;;;9.70;79.90;;;;;;4972976;28;20456;-93
2021/04/14 09:57:44;;;;;;;5.73;4.13;;;9.70;78.70;;;;;;4969356;28;20452;-94
2021/04/14 10:00:32;;;;;;;16.40;5.60;;;9.60;80.30;;;;;;4960052;28;20485;-93
2021/04/14 10:03:10;;;;;;;7.43;4.60;;;9.80;78.60;;;;;;4969590;28;20571;-93
2021/04/14 10:05:39;;;;;;;10.30;5.83;;;9.70;76.20;;;;;;4970623;28;20461;-94
2021/04/14 10:08:06;;;;;;;7.17;4.00;;;9.70;76.50;;;;;;4956574;28;20592;-91
2021/04/14 10:10:41;;;;;;;8.07;5.00;;;9.10;75.10;;;;;;4959991;28;20457;-92
2021/04/14 10:13:32;;;;;;;7.40;4.00;;;9.20;80.70;;;;;;4975604;28;20447;-91
2021/04/14 10:16:03;;;;;;;5.33;4.07;;;9.60;81.90;;;;;;4972209;28;20506;-92
2021/04/14 10:18:36;;;;;;;4.10;3.20;;;10.00;74.30;;;;;;4976026;28;21267;-93
2021/04/14 10:21:24;;;;;;;6.10;4.20;;;9.80;73.90;;;;;;4977400;28;20464;-93
2021/04/14 10:24:03;;;;;;;3.03;2.80;;;10.60;76.50;;;;;;4959106;28;20614;-93
2021/04/14 10:26:38;;;;;;;3.43;3.00;;;11.10;70.80;;;;;;4966567;28;20473;-92
2021/04/14 10:29:09;;;;;;;3.80;3.13;;;10.80;66.30;;;;;;4945501;28;20552;-90
2021/04/14 10:31:37;;;;;;;3.60;3.30;;;10.30;71.40;;;;;;4957818;28;21176;-88
2021/04/14 10:34:23;;;;;;;5.37;2.60;;;9.50;66.80;;;;;;4972332;28;21076;-89
2021/04/14 10:36:49;;;;;;;4.73;2.87;;;8.90;66.30;;;;;;4937094;28;20500;-91
2021/04/14 10:39:18;;;;;;;4.50;2.80;;;9.00;69.80;;;;;;4967865;28;20482;-90
2021/04/14 10:41:46;;;;;;;2.90;2.07;;;9.20;69.20;;;;;;4975473;28;20236;-87
2021/04/14 10:44:22;;;;;;;2.50;2.20;;;8.70;64.40;;;;;;4965274;28;20553;-86
2021/04/14 10:46:49;;;;;;;5.23;2.03;;;8.30;66.80;;;;;;4960761;28;20973;-87
2021/04/14 10:49:25;;;;;;;5.97;2.57;;;8.00;67.80;;;;;;4942045;28;20458;-87
2021/04/14 10:52:12;;;;;;;2.20;2.10;;;7.90;66.70;;;;;;4962216;28;20823;-88
2021/04/14 10:54:43;;;;;;;5.73;2.80;;;8.10;73.00;;;;;;4971047;28;20435;-87
2021/04/14 10:57:29;;;;;;;3.30;2.90;;;8.30;76.90;;;;;;4969334;28;20476;-86
2021/04/14 11:00:11;;;;;;;4.00;3.27;;;8.50;78.40;;;;;;4955843;28;20451;-86
2021/04/14 11:02:41;;;;;;;3.60;2.80;;;8.60;78.90;;;;;;4951348;28;20455;-85
2021/04/14 11:05:13;;;;;;;3.13;2.53;;;8.90;77.70;;;;;;4969915;28;20831;-85
2021/04/14 11:07:41;;;;;;;3.60;2.37;;;8.90;77.80;;;;;;4971387;28;20443;-85
2021/04/14 11:10:11;;;;;;;5.83;2.57;;;9.00;77.40;;;;;;4962760;28;20461;-85
2021/04/14 11:12:44;;;;;;;3.60;2.57;;;9.20;74.60;;;;;;4972566;28;20451;-85
2021/04/14 11:15:16;;;;;;;3.77;2.57;;;9.20;74.90;;;;;;4952343;28;20453;-86
2021/04/14 11:17:42;;;;;;;4.23;2.80;;;9.40;76.70;;;;;;4952976;28;20459;-86
2021/04/14 11:20:14;;;;;;;3.30;2.97;;;9.90;76.80;;;;;;4965279;28;20442;-86
2021/04/14 11:22:45;;;;;;;2.70;2.30;;;10.10;68.60;;;;;;4944316;28;20469;-86
2021/04/14 11:25:25;;;;;;;2.63;2.43;;;10.30;69.10;;;;;;4975119;28;21128;-86
2021/04/14 11:28:02;;;;;;;2.93;2.73;;;10.30;69.40;;;;;;4953960;28;20452;-85
2021/04/14 11:30:29;;;;;;;4.33;3.37;;;9.60;71.90;;;;;;4973507;28;20472;-85
2021/04/14 11:32:58;;;;;;;4.30;2.53;;;9.20;70.20;;;;;;4959077;28;20444;-85
2021/04/14 11:35:56;;;;;;;3.83;3.60;;;9.10;70.60;;;;;;4961012;28;20457;-85
2021/04/14 11:38:41;;;;;;;3.13;2.83;;;9.60;72.90;;;;;;4960975;28;20705;-86
2021/04/14 11:41:25;;;;;;;2.93;2.60;;;9.70;70.20;;;;;;4960911;28;20522;-87
2021/04/14 11:43:52;;;;;;;2.90;2.70;;;10.00;64.90;;;;;;4955982;28;20798;-89
2021/04/14 11:46:38;;;;;;;3.20;2.80;;;10.40;62.50;;;;;;4978549;28;20450;-88
2021/04/14 11:49:10;;;;;;;3.57;2.80;;;10.80;59.60;;;;;;4976084;28;21060;-87
2021/04/14 11:51:39;;;;;;;3.57;3.27;;;11.10;61.60;;;;;;4979654;28;20448;-84
2021/04/14 11:54:34;;;;;;;3.37;3.10;;;11.10;61.30;;;;;;4978235;28;20542;-85
2021/04/14 11:57:05;;;;;;;3.70;3.47;;;10.80;63.90;;;;;;4969849;28;20449;-85
2021/04/14 11:59:34;;;;;;;5.93;2.83;;;10.90;66.10;;;;;;4978711;28;20528;-85
2021/04/14 12:02:23;;;;;;;7.53;3.30;;;11.20;63.00;;;;;;4964706;28;20905;-85
2021/04/14 12:05:00;;;;;;;3.03;2.83;;;11.10;63.90;;;;;;4967409;28;20491;-84
2021/04/14 12:07:26;;;;;;;3.57;3.37;;;11.70;57.60;;;;;;4944810;28;20799;-84
2021/04/14 12:09:52;;;;;;;3.57;3.27;;;11.50;57.30;;;;;;4978215;28;20475;-84
2021/04/14 12:12:19;;;;;;;8.33;3.57;;;11.40;57.00;;;;;;4979090;28;20456;-84
2021/04/14 12:14:45;;;;;;;3.67;2.67;;;11.40;57.40;;;;;;4957543;28;20252;-85
2021/04/14 12:17:12;;;;;;;3.00;2.70;;;11.70;55.90;;;;;;4956767;28;20493;-85
2021/04/14 12:19:41;;;;;;;3.13;2.83;;;11.60;58.70;;;;;;4963178;28;20827;-85
2021/04/14 12:22:07;;;;;;;3.30;3.10;;;11.70;57.70;;;;;;4977404;28;20440;-84
2021/04/14 12:24:33;;;;;;;3.60;3.30;;;11.60;56.50;;;;;;4976610;28;20488;-86
2021/04/14 12:27:02;;;;;;;3.60;2.63;;;11.50;58.30;;;;;;4976051;28;20524;-85
2021/04/14 12:29:28;;;;;;;2.93;2.73;;;11.20;58.50;;;;;;4980498;28;20568;-85
2021/04/14 12:31:54;;;;;;;3.17;2.90;;;11.00;57.70;;;;;;4980733;28;20436;-85
2021/04/14 12:34:19;;;;;;;6.10;3.03;;;10.90;57.90;;;;;;4974260;28;20831;-85
2021/04/14 12:36:45;;;;;;;3.20;2.70;;;11.30;56.40;;;;;;4962459;28;20452;-83
2021/04/14 12:39:11;;;;;;;3.77;3.00;;;11.50;55.80;;;;;;4977128;28;20933;-85
2021/04/14 12:41:38;;;;;;;5.10;3.00;;;11.30;56.20;;;;;;4965334;28;20498;-85
2021/04/14 12:44:05;;;;;;;3.33;3.00;;;11.20;55.30;;;;;;4959378;28;20223;-84
2021/04/14 12:46:32;;;;;;;5.00;3.13;;;11.10;56.70;;;;;;4977669;28;20483;-84
2021/04/14 12:49:17;;;;;;;3.13;2.87;;;10.70;55.80;;;;;;4975258;28;20832;-85
2021/04/14 12:51:55;;;;;;;3.10;2.90;;;10.70;55.80;;;;;;4976536;28;20485;-85
2021/04/14 12:54:35;;;;;;;5.17;3.10;;;10.50;57.20;;;;;;4985225;28;20470;-83
2021/04/14 12:57:06;;;;;;;5.40;3.17;;;10.40;55.70;;;;;;4956862;28;20442;-84
2021/04/14 12:59:53;;;;;;;3.07;2.87;;;10.10;56.00;;;;;;4960328;28;20537;-87
2021/04/14 13:02:23;;;;;;;3.73;3.00;;;9.80;56.00;;;;;;4972472;28;20553;-84
2021/04/14 13:05:02;;;;;;;3.83;3.53;;;10.10;58.00;;;;;;4955369;28;20470;-84
2021/04/14 13:07:58;;;;;;;3.60;3.40;;;10.30;58.10;;;;;;4957961;28;20551;-84
2021/04/14 13:10:31;;;;;;;3.00;2.80;;;10.40;56.70;;;;;;4966857;28;20813;-83
2021/04/14 13:12:57;;;;;;;2.37;2.27;;;10.60;54.10;;;;;;4955119;28;20441;-83
2021/04/14 13:15:36;;;;;;;3.40;3.10;;;10.80;51.40;;;;;;4949447;28;20487;-85
2021/04/14 13:18:02;;;;;;;3.40;3.10;;;11.10;51.00;;;;;;4970750;28;20603;-85